sensor_id;sensor_type;location;lat;lon;timestamp;pressure;altitude;pressure_sealevel;temperature;humidity
14689;BME280;7432;48.728;9.154;2023-01-29T00:00:20;97588.47;;;-0.05;85.11
14689;BME280;7432;48.728;9.154;2023-01-29T00:02:46;97599.44;;;-0.04;85.85
14689;BME280;7432;48.728;9.154;2023-01-29T00:05:13;97607.78;;;-0.02;85.69
14689;BME280;7432;48.728;9.154;2023-01-29T00:07:40;97595.25;;;-0.05;86.16
14689;BME280;7432;48.728;9.154;2023-01-29T00:10:08;97608.19;;;0.08;85.67
14689;BME280;7432;48.728;9.154;2023-01-29T00:12:35;97606.34;;;0.11;85.02
14689;BME280;7432;48.728;9.154;2023-01-29T00:15:01;97601.91;;;0.16;84.55
14689;BME280;7432;48.728;9.154;2023-01-29T00:17:28;97608.88;;;0.11;84.11
14689;BME280;7432;48.728;9.154;2023-01-29T00:19:54;97602.09;;;0.12;84.69
14689;BME280;7432;48.728;9.154;2023-01-29T00:22:21;97606.34;;;0.11;84.37
14689;BME280;7432;48.728;9.154;2023-01-29T00:24:48;97601.69;;;0.02;83.64
14689;BME280;7432;48.728;9.154;2023-01-29T00:27:15;97600.94;;;0.00;83.99
14689;BME280;7432;48.728;9.154;2023-01-29T00:29:41;97599.81;;;0.06;84.18
14689;BME280;7432;48.728;9.154;2023-01-29T00:32:07;97606.00;;;0.00;83.58
14689;BME280;7432;48.728;9.154;2023-01-29T00:34:34;97611.88;;;0.00;84.50
14689;BME280;7432;48.728;9.154;2023-01-29T00:37:00;97601.63;;;0.04;84.50
14689;BME280;7432;48.728;9.154;2023-01-29T00:39:33;97603.00;;;0.11;83.39
14689;BME280;7432;48.728;9.154;2023-01-29T00:42:04;97592.94;;;0.09;84.06
14689;BME280;7432;48.728;9.154;2023-01-29T00:44:48;97588.78;;;0.08;84.01
14689;BME280;7432;48.728;9.154;2023-01-29T00:47:23;97595.13;;;-0.02;83.54
14689;BME280;7432;48.728;9.154;2023-01-29T00:49:57;97593.16;;;0.05;84.67
14689;BME280;7432;48.728;9.154;2023-01-29T00:52:24;97593.19;;;0.03;83.49
14689;BME280;7432;48.728;9.154;2023-01-29T00:54:51;97593.16;;;0.05;84.45
14689;BME280;7432;48.728;9.154;2023-01-29T00:57:19;97590.34;;;0.11;84.62
14689;BME280;7432;48.728;9.154;2023-01-29T00:59:45;97599.81;;;0.06;84.30
14689;BME280;7432;48.728;9.154;2023-01-29T01:02:12;97597.38;;;0.04;83.39
14689;BME280;7432;48.728;9.154;2023-01-29T01:04:56;97589.88;;;0.03;83.76
14689;BME280;7432;48.728;9.154;2023-01-29T01:07:22;97587.38;;;0.01;83.70
14689;BME280;7432;48.728;9.154;2023-01-29T01:09:48;97594.84;;;0.04;84.09
14689;BME280;7432;48.728;9.154;2023-01-29T01:12:34;97590.53;;;0.06;83.85
14689;BME280;7432;48.728;9.154;2023-01-29T01:15:00;97591.44;;;0.05;83.60
14689;BME280;7432;48.728;9.154;2023-01-29T01:17:27;97587.81;;;0.11;82.95
14689;BME280;7432;48.728;9.154;2023-01-29T01:19:53;97600.38;;;0.12;83.10
14689;BME280;7432;48.728;9.154;2023-01-29T01:22:20;97582.75;;;0.11;83.54
14689;BME280;7432;48.728;9.154;2023-01-29T01:24:46;97584.59;;;0.07;83.46
14689;BME280;7432;48.728;9.154;2023-01-29T01:27:13;97581.59;;;-0.01;82.74
14689;BME280;7432;48.728;9.154;2023-01-29T01:29:40;97582.88;;;0.08;82.68
14689;BME280;7432;48.728;9.154;2023-01-29T01:32:07;97583.91;;;0.04;83.10
14689;BME280;7432;48.728;9.154;2023-01-29T01:34:33;97582.09;;;0.06;83.80
14689;BME280;7432;48.728;9.154;2023-01-29T01:37:00;97587.94;;;0.08;82.71
14689;BME280;7432;48.728;9.154;2023-01-29T01:39:26;97586.25;;;0.08;82.76
14689;BME280;7432;48.728;9.154;2023-01-29T01:41:53;97585.34;;;0.09;83.02
14689;BME280;7432;48.728;9.154;2023-01-29T01:44:56;97584.63;;;0.06;82.69
14689;BME280;7432;48.728;9.154;2023-01-29T01:47:26;97585.34;;;-0.10;82.19
14689;BME280;7432;48.728;9.154;2023-01-29T01:49:59;97584.47;;;-0.09;83.40
14689;BME280;7432;48.728;9.154;2023-01-29T01:52:29;97580.97;;;-0.06;82.91
14689;BME280;7432;48.728;9.154;2023-01-29T01:54:57;97577.41;;;-0.02;83.01
14689;BME280;7432;48.728;9.154;2023-01-29T01:57:24;97575.44;;;-0.14;82.55
14689;BME280;7432;48.728;9.154;2023-01-29T01:59:58;97573.78;;;-0.15;82.85
14689;BME280;7432;48.728;9.154;2023-01-29T02:02:34;97571.81;;;-0.09;83.04
14689;BME280;7432;48.728;9.154;2023-01-29T02:05:18;97580.50;;;-0.14;83.42
14689;BME280;7432;48.728;9.154;2023-01-29T02:08:02;97571.84;;;-0.10;82.69
14689;BME280;7432;48.728;9.154;2023-01-29T02:10:47;97576.19;;;-0.12;82.99
14689;BME280;7432;48.728;9.154;2023-01-29T02:13:15;97578.72;;;-0.12;83.13
14689;BME280;7432;48.728;9.154;2023-01-29T02:15:44;97574.38;;;-0.10;83.36
14689;BME280;7432;48.728;9.154;2023-01-29T02:18:13;97590.66;;;0.03;82.78
14689;BME280;7432;48.728;9.154;2023-01-29T02:20:41;97590.66;;;0.03;83.34
14689;BME280;7432;48.728;9.154;2023-01-29T02:23:37;97589.66;;;0.07;82.72
14689;BME280;7432;48.728;9.154;2023-01-29T02:26:20;97596.16;;;0.13;83.49
14689;BME280;7432;48.728;9.154;2023-01-29T02:28:55;97594.50;;;0.12;82.02
14689;BME280;7432;48.728;9.154;2023-01-29T02:31:50;97593.06;;;0.06;80.98
14689;BME280;7432;48.728;9.154;2023-01-29T02:34:26;97593.28;;;0.02;82.09
14689;BME280;7432;48.728;9.154;2023-01-29T02:37:12;97589.53;;;-0.09;82.09
14689;BME280;7432;48.728;9.154;2023-01-29T02:39:46;97590.28;;;-0.07;81.35
14689;BME280;7432;48.728;9.154;2023-01-29T02:42:23;97588.69;;;-0.09;82.44
14689;BME280;7432;48.728;9.154;2023-01-29T02:44:58;97584.59;;;-0.12;82.38
14689;BME280;7432;48.728;9.154;2023-01-29T02:47:29;97597.72;;;-0.04;82.59
14689;BME280;7432;48.728;9.154;2023-01-29T02:50:03;97590.97;;;-0.03;81.25
14689;BME280;7432;48.728;9.154;2023-01-29T02:52:37;97597.38;;;0.04;81.05
14689;BME280;7432;48.728;9.154;2023-01-29T02:55:11;97597.59;;;-0.01;81.53
14689;BME280;7432;48.728;9.154;2023-01-29T02:57:42;97586.50;;;0.02;79.96
14689;BME280;7432;48.728;9.154;2023-01-29T03:00:13;97590.13;;;-0.04;80.96
14689;BME280;7432;48.728;9.154;2023-01-29T03:02:46;97581.94;;;-0.09;80.81
14689;BME280;7432;48.728;9.154;2023-01-29T03:05:16;97582.72;;;-0.08;81.77
14689;BME280;7432;48.728;9.154;2023-01-29T03:07:51;97583.50;;;-0.06;81.78
14689;BME280;7432;48.728;9.154;2023-01-29T03:10:22;97576.22;;;-0.14;81.24
14689;BME280;7432;48.728;9.154;2023-01-29T03:12:53;97581.28;;;-0.14;80.76
14689;BME280;7432;48.728;9.154;2023-01-29T03:15:24;97579.06;;;-0.20;81.79
14689;BME280;7432;48.728;9.154;2023-01-29T03:17:55;97577.34;;;-0.19;80.03
14689;BME280;7432;48.728;9.154;2023-01-29T03:20:27;97582.25;;;-0.16;80.15
14689;BME280;7432;48.728;9.154;2023-01-29T03:22:59;97574.66;;;-0.16;80.64
14689;BME280;7432;48.728;9.154;2023-01-29T03:25:27;97583.41;;;-0.23;81.34
14689;BME280;7432;48.728;9.154;2023-01-29T03:28:14;97549.56;;;-0.39;81.93
14689;BME280;7432;48.728;9.154;2023-01-29T03:31:04;97576.09;;;-0.29;82.43
14689;BME280;7432;48.728;9.154;2023-01-29T03:33:50;97569.44;;;-0.32;82.06
14689;BME280;7432;48.728;9.154;2023-01-29T03:36:20;97578.97;;;-0.18;81.60
14689;BME280;7432;48.728;9.154;2023-01-29T03:38:48;97581.75;;;-0.24;81.98
14689;BME280;7432;48.728;9.154;2023-01-29T03:41:21;97581.72;;;-0.23;82.26
14689;BME280;7432;48.728;9.154;2023-01-29T03:43:54;97576.03;;;-0.28;81.44
14689;BME280;7432;48.728;9.154;2023-01-29T03:46:27;97575.47;;;-0.16;80.95
14689;BME280;7432;48.728;9.154;2023-01-29T03:49:00;97578.97;;;-0.18;81.61
14689;BME280;7432;48.728;9.154;2023-01-29T03:51:35;97576.44;;;-0.18;81.52
14689;BME280;7432;48.728;9.154;2023-01-29T03:54:08;97575.28;;;-0.11;81.31
14689;BME280;7432;48.728;9.154;2023-01-29T03:56:46;97584.72;;;-0.15;80.78
14689;BME280;7432;48.728;9.154;2023-01-29T03:59:24;97582.06;;;-0.12;80.25
14689;BME280;7432;48.728;9.154;2023-01-29T04:01:58;97587.13;;;-0.12;79.66
14689;BME280;7432;48.728;9.154;2023-01-29T04:04:27;97588.25;;;-0.19;80.06
14689;BME280;7432;48.728;9.154;2023-01-29T04:07:00;97578.84;;;-0.15;80.91
14689;BME280;7432;48.728;9.154;2023-01-29T04:09:31;97562.44;;;-0.25;80.35
14689;BME280;7432;48.728;9.154;2023-01-29T04:12:02;97583.81;;;-0.14;81.00
14689;BME280;7432;48.728;9.154;2023-01-29T04:14:31;97586.28;;;-0.12;80.83
14689;BME280;7432;48.728;9.154;2023-01-29T04:17:02;97589.16;;;-0.20;80.47
14689;BME280;7432;48.728;9.154;2023-01-29T04:19:32;97587.25;;;-0.15;80.47
14689;BME280;7432;48.728;9.154;2023-01-29T04:22:04;97584.72;;;-0.15;80.21
14689;BME280;7432;48.728;9.154;2023-01-29T04:24:31;97589.78;;;-0.15;80.47
14689;BME280;7432;48.728;9.154;2023-01-29T04:27:05;97589.09;;;-0.18;81.12
14689;BME280;7432;48.728;9.154;2023-01-29T04:29:46;97587.31;;;-0.16;80.92
14689;BME280;7432;48.728;9.154;2023-01-29T04:32:25;97593.75;;;-0.28;81.44
14689;BME280;7432;48.728;9.154;2023-01-29T04:35:00;97597.06;;;-0.27;81.12
14689;BME280;7432;48.728;9.154;2023-01-29T04:37:35;97594.88;;;-0.35;81.57
14689;BME280;7432;48.728;9.154;2023-01-29T04:40:08;97583.53;;;-0.26;80.54
14689;BME280;7432;48.728;9.154;2023-01-29T04:42:43;97587.66;;;-0.24;81.52
14689;BME280;7432;48.728;9.154;2023-01-29T04:45:17;97582.59;;;-0.24;81.28
14689;BME280;7432;48.728;9.154;2023-01-29T04:47:56;97588.09;;;-0.14;81.03
14689;BME280;7432;48.728;9.154;2023-01-29T04:50:28;97578.09;;;-0.17;80.30
14689;BME280;7432;48.728;9.154;2023-01-29T04:53:01;97583.16;;;-0.17;80.98
14689;BME280;7432;48.728;9.154;2023-01-29T04:55:33;97581.44;;;-0.17;81.52
14689;BME280;7432;48.728;9.154;2023-01-29T04:58:05;97579.88;;;-0.19;81.28
14689;BME280;7432;48.728;9.154;2023-01-29T05:00:37;97580.75;;;-0.20;81.21
14689;BME280;7432;48.728;9.154;2023-01-29T05:03:06;97582.41;;;-0.19;80.94
14689;BME280;7432;48.728;9.154;2023-01-29T05:05:34;97577.41;;;-0.21;80.91
14689;BME280;7432;48.728;9.154;2023-01-29T05:08:01;97592.31;;;-0.15;80.28
14689;BME280;7432;48.728;9.154;2023-01-29T05:10:28;97587.66;;;-0.24;80.75
14689;BME280;7432;48.728;9.154;2023-01-29T05:12:59;97592.09;;;-0.29;80.73
14689;BME280;7432;48.728;9.154;2023-01-29T05:15:30;97596.59;;;-0.35;81.57
14689;BME280;7432;48.728;9.154;2023-01-29T05:17:58;97594.06;;;-0.35;80.33
14689;BME280;7432;48.728;9.154;2023-01-29T05:20:30;97596.47;;;-0.32;79.80
14689;BME280;7432;48.728;9.154;2023-01-29T05:22:57;97580.75;;;-0.39;80.65
14689;BME280;7432;48.728;9.154;2023-01-29T05:25:26;97578.22;;;-0.39;81.07
14689;BME280;7432;48.728;9.154;2023-01-29T05:27:53;97583.53;;;-0.45;81.19
14689;BME280;7432;48.728;9.154;2023-01-29T05:30:32;97581.88;;;-0.46;81.05
14689;BME280;7432;48.728;9.154;2023-01-29T05:32:58;97597.41;;;-0.35;81.42
14689;BME280;7432;48.728;9.154;2023-01-29T05:35:25;97604.00;;;-0.31;80.90
14689;BME280;7432;48.728;9.154;2023-01-29T05:37:54;97599.06;;;-0.34;80.64
14689;BME280;7432;48.728;9.154;2023-01-29T05:40:20;97600.16;;;-0.39;80.82
14689;BME280;7432;48.728;9.154;2023-01-29T05:42:47;97588.25;;;-0.37;81.21
14689;BME280;7432;48.728;9.154;2023-01-29T05:45:13;97589.22;;;-0.40;81.66
14689;BME280;7432;48.728;9.154;2023-01-29T05:47:39;97587.13;;;-0.30;80.67
14689;BME280;7432;48.728;9.154;2023-01-29T05:50:07;97588.88;;;-0.32;81.16
14689;BME280;7432;48.728;9.154;2023-01-29T05:52:33;97592.56;;;-0.39;81.43
14689;BME280;7432;48.728;9.154;2023-01-29T05:55:01;97571.28;;;-0.35;80.94
14689;BME280;7432;48.728;9.154;2023-01-29T05:57:28;97567.19;;;-0.38;80.05
14689;BME280;7432;48.728;9.154;2023-01-29T05:59:54;97545.47;;;-0.42;80.39
14689;BME280;7432;48.728;9.154;2023-01-29T06:02:21;97539.56;;;-0.42;81.14
14689;BME280;7432;48.728;9.154;2023-01-29T06:04:49;97516.78;;;-0.61;80.71
14689;BME280;7432;48.728;9.154;2023-01-29T06:07:16;97536.16;;;-0.41;81.81
14689;BME280;7432;48.728;9.154;2023-01-29T06:09:42;97541.84;;;-0.36;80.93
14689;BME280;7432;48.728;9.154;2023-01-29T06:12:10;97559.88;;;-0.44;81.28
14689;BME280;7432;48.728;9.154;2023-01-29T06:14:37;97557.28;;;-0.42;81.30
14689;BME280;7432;48.728;9.154;2023-01-29T06:17:03;97556.41;;;-0.41;80.37
14689;BME280;7432;48.728;9.154;2023-01-29T06:19:29;97565.06;;;-0.47;79.72
14689;BME280;7432;48.728;9.154;2023-01-29T06:21:56;97562.34;;;-0.42;80.49
14689;BME280;7432;48.728;9.154;2023-01-29T06:24:22;97563.34;;;-0.46;81.25
14689;BME280;7432;48.728;9.154;2023-01-29T06:26:48;97564.94;;;-0.44;80.78
14689;BME280;7432;48.728;9.154;2023-01-29T06:29:16;97566.53;;;-0.41;81.33
14689;BME280;7432;48.728;9.154;2023-01-29T06:31:43;97569.09;;;-0.43;80.80
14689;BME280;7432;48.728;9.154;2023-01-29T06:34:09;97568.97;;;-0.40;81.07
14689;BME280;7432;48.728;9.154;2023-01-29T06:36:35;97569.19;;;-0.44;80.25
14689;BME280;7432;48.728;9.154;2023-01-29T06:39:02;97568.75;;;-0.54;80.32
14689;BME280;7432;48.728;9.154;2023-01-29T06:41:29;97572.72;;;-0.48;79.72
14689;BME280;7432;48.728;9.154;2023-01-29T06:43:55;97588.56;;;-0.64;80.52
14689;BME280;7432;48.728;9.154;2023-01-29T06:46:23;97584.81;;;-0.55;80.36
14689;BME280;7432;48.728;9.154;2023-01-29T06:48:49;97587.16;;;-0.50;80.71
14689;BME280;7432;48.728;9.154;2023-01-29T06:51:16;97589.50;;;-0.66;80.96
14689;BME280;7432;48.728;9.154;2023-01-29T06:53:42;97585.91;;;-0.61;81.66
14689;BME280;7432;48.728;9.154;2023-01-29T06:56:09;97573.94;;;-0.57;82.09
14689;BME280;7432;48.728;9.154;2023-01-29T06:58:35;97580.13;;;-0.44;82.03
14689;BME280;7432;48.728;9.154;2023-01-29T07:01:03;97578.81;;;-0.52;80.60
14689;BME280;7432;48.728;9.154;2023-01-29T07:03:31;97576.31;;;-0.54;81.18
14689;BME280;7432;48.728;9.154;2023-01-29T07:05:58;97597.53;;;-0.38;80.02
14689;BME280;7432;48.728;9.154;2023-01-29T07:08:24;97590.72;;;-0.36;80.37
14689;BME280;7432;48.728;9.154;2023-01-29T07:10:51;97594.13;;;-0.37;80.86
14689;BME280;7432;48.728;9.154;2023-01-29T07:13:18;97596.06;;;-0.42;80.77
14689;BME280;7432;48.728;9.154;2023-01-29T07:15:44;97594.00;;;-0.34;80.36
14689;BME280;7432;48.728;9.154;2023-01-29T07:18:10;97590.72;;;-0.36;80.54
14689;BME280;7432;48.728;9.154;2023-01-29T07:20:39;97595.72;;;-0.34;80.07
14689;BME280;7432;48.728;9.154;2023-01-29T07:23:07;97589.66;;;-0.30;80.32
14689;BME280;7432;48.728;9.154;2023-01-29T07:25:34;97590.53;;;-0.31;79.96
14689;BME280;7432;48.728;9.154;2023-01-29T07:28:00;97592.91;;;-0.28;79.88
14689;BME280;7432;48.728;9.154;2023-01-29T07:30:27;97588.13;;;-0.34;79.89
14689;BME280;7432;48.728;9.154;2023-01-29T07:32:53;97597.91;;;-0.27;79.10
14689;BME280;7432;48.728;9.154;2023-01-29T07:35:20;97599.97;;;-0.16;80.26
14689;BME280;7432;48.728;9.154;2023-01-29T07:37:49;97602.56;;;-0.18;80.61
14689;BME280;7432;48.728;9.154;2023-01-29T07:40:15;97602.84;;;-0.24;80.55
14689;BME280;7432;48.728;9.154;2023-01-29T07:42:42;97615.38;;;-0.02;79.94
14689;BME280;7432;48.728;9.154;2023-01-29T07:45:09;97619.06;;;-0.09;80.11
14689;BME280;7432;48.728;9.154;2023-01-29T07:47:36;97620.16;;;0.04;79.48
14689;BME280;7432;48.728;9.154;2023-01-29T07:50:04;97620.84;;;0.08;78.98
14689;BME280;7432;48.728;9.154;2023-01-29T07:52:32;97614.75;;;0.12;78.56
14689;BME280;7432;48.728;9.154;2023-01-29T07:55:00;97614.88;;;0.09;78.21
14689;BME280;7432;48.728;9.154;2023-01-29T07:57:26;97620.50;;;0.15;78.04
14689;BME280;7432;48.728;9.154;2023-01-29T07:59:52;97630.50;;;0.18;78.06
14689;BME280;7432;48.728;9.154;2023-01-29T08:02:19;97635.16;;;0.27;77.01
14689;BME280;7432;48.728;9.154;2023-01-29T08:04:45;97632.94;;;0.20;76.82
14689;BME280;7432;48.728;9.154;2023-01-29T08:07:11;97638.31;;;0.14;77.03
14689;BME280;7432;48.728;9.154;2023-01-29T08:09:38;97626.78;;;0.25;77.45
14689;BME280;7432;48.728;9.154;2023-01-29T08:12:06;97631.34;;;0.00;77.24
14689;BME280;7432;48.728;9.154;2023-01-29T08:14:32;97622.97;;;-0.02;77.93
14689;BME280;7432;48.728;9.154;2023-01-29T08:16:58;97628.38;;;0.09;77.48
14689;BME280;7432;48.728;9.154;2023-01-29T08:19:25;97628.97;;;0.14;77.53
14689;BME280;7432;48.728;9.154;2023-01-29T08:21:51;97629.69;;;0.18;78.51
14689;BME280;7432;48.728;9.154;2023-01-29T08:24:17;97621.81;;;0.24;77.74
14689;BME280;7432;48.728;9.154;2023-01-29T08:26:44;97629.31;;;0.25;77.82
14689;BME280;7432;48.728;9.154;2023-01-29T08:29:12;97634.34;;;0.27;77.33
14689;BME280;7432;48.728;9.154;2023-01-29T08:31:38;97648.09;;;0.40;75.30
14689;BME280;7432;48.728;9.154;2023-01-29T08:34:05;97643.03;;;0.40;75.45
14689;BME280;7432;48.728;9.154;2023-01-29T08:36:31;97651.97;;;0.47;76.16
14689;BME280;7432;48.728;9.154;2023-01-29T08:38:58;97647.69;;;0.49;74.98
14689;BME280;7432;48.728;9.154;2023-01-29T08:41:25;97651.06;;;0.67;75.48
14689;BME280;7432;48.728;9.154;2023-01-29T08:43:51;97652.03;;;0.64;74.80
14689;BME280;7432;48.728;9.154;2023-01-29T08:46:19;97655.81;;;0.55;74.22
14689;BME280;7432;48.728;9.154;2023-01-29T08:48:45;97646.56;;;0.54;75.00
14689;BME280;7432;48.728;9.154;2023-01-29T08:51:12;97649.56;;;0.63;75.79
14689;BME280;7432;48.728;9.154;2023-01-29T08:53:38;97656.41;;;0.60;74.88
14689;BME280;7432;48.728;9.154;2023-01-29T08:56:05;97658.94;;;0.60;74.53
14689;BME280;7432;48.728;9.154;2023-01-29T08:58:31;97667.22;;;0.64;74.69
14689;BME280;7432;48.728;9.154;2023-01-29T09:01:04;97655.44;;;0.63;74.26
14689;BME280;7432;48.728;9.154;2023-01-29T09:03:32;97658.88;;;0.62;74.10
14689;BME280;7432;48.728;9.154;2023-01-29T09:05:59;97655.25;;;0.68;73.94
14689;BME280;7432;48.728;9.154;2023-01-29T09:08:25;97660.34;;;0.85;74.28
14689;BME280;7432;48.728;9.154;2023-01-29T09:10:52;97655.81;;;0.91;73.23
14689;BME280;7432;48.728;9.154;2023-01-29T09:13:18;97663.69;;;0.85;73.36
14689;BME280;7432;48.728;9.154;2023-01-29T09:15:44;97664.78;;;0.63;73.19
14689;BME280;7432;48.728;9.154;2023-01-29T09:18:11;97665.84;;;0.76;73.05
14689;BME280;7432;48.728;9.154;2023-01-29T09:20:39;97668.19;;;0.97;71.93
14689;BME280;7432;48.728;9.154;2023-01-29T09:23:05;97674.47;;;1.07;73.27
14689;BME280;7432;48.728;9.154;2023-01-29T09:25:33;97663.66;;;1.21;72.52
14689;BME280;7432;48.728;9.154;2023-01-29T09:27:59;97673.59;;;1.26;71.39
14689;BME280;7432;48.728;9.154;2023-01-29T09:30:26;97674.56;;;1.40;72.23
14689;BME280;7432;48.728;9.154;2023-01-29T09:32:52;97667.47;;;1.47;70.87
14689;BME280;7432;48.728;9.154;2023-01-29T09:35:18;97671.44;;;1.52;69.64
14689;BME280;7432;48.728;9.154;2023-01-29T09:37:47;97672.19;;;1.54;69.78
14689;BME280;7432;48.728;9.154;2023-01-29T09:40:22;97668.91;;;1.52;70.44
14689;BME280;7432;48.728;9.154;2023-01-29T09:42:54;97678.91;;;1.55;70.38
14689;BME280;7432;48.728;9.154;2023-01-29T09:45:24;97674.72;;;1.54;70.26
14689;BME280;7432;48.728;9.154;2023-01-29T09:47:52;97665.81;;;1.63;69.63
14689;BME280;7432;48.728;9.154;2023-01-29T09:50:23;97664.03;;;1.65;69.45
14689;BME280;7432;48.728;9.154;2023-01-29T09:52:55;97665.69;;;1.66;69.56
14689;BME280;7432;48.728;9.154;2023-01-29T09:55:25;97658.72;;;1.69;69.28
14689;BME280;7432;48.728;9.154;2023-01-29T09:57:55;97652.69;;;1.72;68.06
14689;BME280;7432;48.728;9.154;2023-01-29T10:00:25;97638.91;;;1.76;68.84
14689;BME280;7432;48.728;9.154;2023-01-29T10:03:15;97633.31;;;1.69;68.37
14689;BME280;7432;48.728;9.154;2023-01-29T10:05:57;97629.94;;;1.86;68.92
14689;BME280;7432;48.728;9.154;2023-01-29T10:08:42;97613.50;;;1.93;69.25
14689;BME280;7432;48.728;9.154;2023-01-29T10:11:23;97606.88;;;2.22;68.52
14689;BME280;7432;48.728;9.154;2023-01-29T10:14:01;97604.16;;;2.40;66.75
14689;BME280;7432;48.728;9.154;2023-01-29T10:16:40;97578.75;;;2.56;67.18
14689;BME280;7432;48.728;9.154;2023-01-29T10:19:28;97602.56;;;2.85;64.74
14689;BME280;7432;48.728;9.154;2023-01-29T10:22:23;97594.19;;;3.13;65.81
14689;BME280;7432;48.728;9.154;2023-01-29T10:24:56;97588.56;;;3.08;65.16
14689;BME280;7432;48.728;9.154;2023-01-29T10:27:31;97583.75;;;3.03;65.21
14689;BME280;7432;48.728;9.154;2023-01-29T10:29:59;97579.19;;;3.08;64.43
14689;BME280;7432;48.728;9.154;2023-01-29T10:32:27;97601.94;;;3.25;64.35
14689;BME280;7432;48.728;9.154;2023-01-29T10:34:58;97605.25;;;3.27;64.07
14689;BME280;7432;48.728;9.154;2023-01-29T10:37:35;97604.47;;;3.11;65.41
14689;BME280;7432;48.728;9.154;2023-01-29T10:40:17;97612.91;;;3.12;64.14
14689;BME280;7432;48.728;9.154;2023-01-29T10:42:49;97604.00;;;3.05;65.53
14689;BME280;7432;48.728;9.154;2023-01-29T10:45:25;97614.06;;;3.06;65.14
14689;BME280;7432;48.728;9.154;2023-01-29T10:48:07;97611.13;;;3.14;64.16
14689;BME280;7432;48.728;9.154;2023-01-29T10:50:46;97591.94;;;2.92;62.95
14689;BME280;7432;48.728;9.154;2023-01-29T10:53:24;97612.88;;;3.27;63.62
14689;BME280;7432;48.728;9.154;2023-01-29T10:56:00;97612.16;;;3.39;63.65
14689;BME280;7432;48.728;9.154;2023-01-29T10:58:31;97603.72;;;3.53;63.33
14689;BME280;7432;48.728;9.154;2023-01-29T11:00:58;97597.91;;;3.51;63.17
14689;BME280;7432;48.728;9.154;2023-01-29T11:03:27;97598.19;;;3.75;62.79
14689;BME280;7432;48.728;9.154;2023-01-29T11:05:58;97597.81;;;3.67;61.77
14689;BME280;7432;48.728;9.154;2023-01-29T11:08:30;97599.34;;;3.69;63.01
14689;BME280;7432;48.728;9.154;2023-01-29T11:11:06;97598.66;;;3.81;61.77
14689;BME280;7432;48.728;9.154;2023-01-29T11:13:37;97608.16;;;3.64;61.55
14689;BME280;7432;48.728;9.154;2023-01-29T11:16:07;97607.22;;;3.66;61.15
14689;BME280;7432;48.728;9.154;2023-01-29T11:18:48;97601.00;;;3.70;61.16
14689;BME280;7432;48.728;9.154;2023-01-29T11:21:15;97604.44;;;3.69;62.14
14689;BME280;7432;48.728;9.154;2023-01-29T11:23:41;97594.84;;;3.74;61.89
14689;BME280;7432;48.728;9.154;2023-01-29T11:26:10;97587.28;;;3.73;62.08
14689;BME280;7432;48.728;9.154;2023-01-29T11:28:38;97588.38;;;3.54;61.26
14689;BME280;7432;48.728;9.154;2023-01-29T11:31:22;97589.91;;;3.57;61.29
14689;BME280;7432;48.728;9.154;2023-01-29T11:33:52;97588.00;;;3.61;62.29
14689;BME280;7432;48.728;9.154;2023-01-29T11:36:23;97575.34;;;3.73;62.43
14689;BME280;7432;48.728;9.154;2023-01-29T11:39:09;97563.69;;;3.69;61.75
14689;BME280;7432;48.728;9.154;2023-01-29T11:41:43;97567.44;;;3.78;62.24
14689;BME280;7432;48.728;9.154;2023-01-29T11:44:17;97565.44;;;3.69;61.35
14689;BME280;7432;48.728;9.154;2023-01-29T11:46:44;97570.91;;;3.77;61.10
14689;BME280;7432;48.728;9.154;2023-01-29T11:49:20;97570.44;;;3.70;61.52
14689;BME280;7432;48.728;9.154;2023-01-29T11:51:51;97561.38;;;3.66;61.68
14689;BME280;7432;48.728;9.154;2023-01-29T11:54:28;97545.44;;;3.63;62.68
14689;BME280;7432;48.728;9.154;2023-01-29T11:56:58;97559.19;;;3.60;62.33
14689;BME280;7432;48.728;9.154;2023-01-29T11:59:30;97551.34;;;3.49;62.83
14689;BME280;7432;48.728;9.154;2023-01-29T12:02:11;97555.88;;;3.72;62.45
14689;BME280;7432;48.728;9.154;2023-01-29T12:04:41;97548.78;;;3.77;62.49
14689;BME280;7432;48.728;9.154;2023-01-29T12:07:12;97556.50;;;3.90;62.20
14689;BME280;7432;48.728;9.154;2023-01-29T12:09:39;97548.16;;;3.59;62.33
14689;BME280;7432;48.728;9.154;2023-01-29T12:12:38;97538.97;;;3.57;61.50
14689;BME280;7432;48.728;9.154;2023-01-29T12:15:21;97523.59;;;3.73;62.32
14689;BME280;7432;48.728;9.154;2023-01-29T12:18:02;97515.13;;;3.58;62.87
14689;BME280;7432;48.728;9.154;2023-01-29T12:20:35;97512.75;;;3.69;62.85
14689;BME280;7432;48.728;9.154;2023-01-29T12:23:13;97514.41;;;3.56;62.74
14689;BME280;7432;48.728;9.154;2023-01-29T12:25:50;97494.41;;;3.50;63.79
14689;BME280;7432;48.728;9.154;2023-01-29T12:28:30;97488.41;;;3.51;62.93
14689;BME280;7432;48.728;9.154;2023-01-29T12:31:10;97491.63;;;3.40;63.14
14689;BME280;7432;48.728;9.154;2023-01-29T12:33:41;97478.88;;;3.40;64.26
14689;BME280;7432;48.728;9.154;2023-01-29T12:36:13;97474.97;;;3.35;63.79
14689;BME280;7432;48.728;9.154;2023-01-29T12:38:43;97458.06;;;3.34;63.82
14689;BME280;7432;48.728;9.154;2023-01-29T12:41:23;97450.72;;;3.29;65.45
14689;BME280;7432;48.728;9.154;2023-01-29T12:43:54;97441.19;;;3.19;63.02
14689;BME280;7432;48.728;9.154;2023-01-29T12:46:26;97447.63;;;3.24;64.07
14689;BME280;7432;48.728;9.154;2023-01-29T12:48:55;97437.44;;;3.24;63.72
14689;BME280;7432;48.728;9.154;2023-01-29T12:51:28;97439.16;;;3.24;63.49
14689;BME280;7432;48.728;9.154;2023-01-29T12:53:59;97422.66;;;3.17;64.10
14689;BME280;7432;48.728;9.154;2023-01-29T12:56:30;97433.25;;;3.23;64.38
14689;BME280;7432;48.728;9.154;2023-01-29T12:59:00;97419.34;;;3.00;64.76
14689;BME280;7432;48.728;9.154;2023-01-29T13:01:32;97438.34;;;3.23;63.87
14689;BME280;7432;48.728;9.154;2023-01-29T13:04:02;97433.44;;;3.20;64.78
14689;BME280;7432;48.728;9.154;2023-01-29T13:06:34;97426.81;;;3.18;63.91
14689;BME280;7432;48.728;9.154;2023-01-29T13:09:05;97424.19;;;3.19;63.96
14689;BME280;7432;48.728;9.154;2023-01-29T13:11:38;97425.38;;;3.28;64.21
14689;BME280;7432;48.728;9.154;2023-01-29T13:14:12;97419.81;;;3.21;62.76
14689;BME280;7432;48.728;9.154;2023-01-29T13:16:44;97419.44;;;3.27;64.43
14689;BME280;7432;48.728;9.154;2023-01-29T13:19:20;97419.53;;;3.26;63.89
14689;BME280;7432;48.728;9.154;2023-01-29T13:21:50;97417.34;;;3.34;64.26
14689;BME280;7432;48.728;9.154;2023-01-29T13:24:20;97396.63;;;3.26;63.64
14689;BME280;7432;48.728;9.154;2023-01-29T13:26:48;97409.34;;;3.26;64.00
14689;BME280;7432;48.728;9.154;2023-01-29T13:29:21;97408.75;;;3.22;63.24
14689;BME280;7432;48.728;9.154;2023-01-29T13:31:49;97411.19;;;3.24;64.51
14689;BME280;7432;48.728;9.154;2023-01-29T13:34:21;97400.28;;;3.08;64.00
14689;BME280;7432;48.728;9.154;2023-01-29T13:36:50;97408.00;;;3.06;65.03